Time;durP1;ratioP1;P1;durP2;ratioP2;P2;SDS_P1;SDS_P2;PMS_P1;PMS_P2;Temp;Humidity;BMP_temperature;BMP_pressure;BME280_temperature;BME280_humidity;BME280_pressure;Samples;Min_cycle;Max_cycle;Signal;HPM_P1;HPM_P2
2021/01/20 00:00:39;;;;;;;3.42;2.17;;;;;;;;;;4846792;29;20132;-79
2021/01/20 00:03:05;;;;;;;4.43;2.78;;;;;;;;;;4849331;29;20049;-79
2021/01/20 00:05:31;;;;;;;3.35;2.35;;;;;;;;;;4848313;29;20048;-82
2021/01/20 00:07:58;;;;;;;4.32;2.70;;;;;;;;;;4849679;29;20053;-82
2021/01/20 00:10:24;;;;;;;5.00;2.50;;;;;;;;;;4846132;29;20601;-81
2021/01/20 00:12:50;;;;;;;3.85;2.65;;;;;;;;;;4847983;29;20071;-80
2021/01/20 00:15:23;;;;;;;5.68;2.80;;;;;;;;;;4847536;29;20137;-80
2021/01/20 00:17:50;;;;;;;5.80;2.60;;;;;;;;;;4850132;29;20597;-79
2021/01/20 00:20:16;;;;;;;4.75;2.55;;;;;;;;;;4850634;29;20190;-80
2021/01/20 00:22:46;;;;;;;4.50;2.00;;;;;;;;;;4850076;29;20102;-80
2021/01/20 00:25:12;;;;;;;3.42;2.47;;;;;;;;;;4845800;29;20128;-80
2021/01/20 00:27:38;;;;;;;4.10;2.30;;;;;;;;;;4845158;29;20050;-80
2021/01/20 00:30:08;;;;;;;4.53;2.88;;;;;;;;;;4843115;29;20058;-82
2021/01/20 00:32:34;;;;;;;3.65;2.50;;;;;;;;;;4848415;29;20064;-82
2021/01/20 00:35:01;;;;;;;16.13;3.45;;;;;;;;;;4849888;29;20057;-90
2021/01/20 00:37:27;;;;;;;4.43;2.60;;;;;;;;;;4846644;29;20241;-90
2021/01/20 00:39:53;;;;;;;10.75;2.75;;;;;;;;;;4852302;29;20184;-91
2021/01/20 00:42:19;;;;;;;4.63;2.17;;;;;;;;;;4857117;29;20045;-89
2021/01/20 00:44:45;;;;;;;3.72;2.47;;;;;;;;;;4853743;29;20049;-90
2021/01/20 00:47:11;;;;;;;4.35;2.58;;;;;;;;;;4855606;29;20567;-92
2021/01/20 00:49:38;;;;;;;3.25;2.17;;;;;;;;;;4847226;29;20085;-87
2021/01/20 00:52:04;;;;;;;3.38;2.17;;;;;;;;;;4853168;29;20133;-81
2021/01/20 00:54:30;;;;;;;4.15;2.60;;;;;;;;;;4849888;29;20050;-83
2021/01/20 00:56:56;;;;;;;3.45;2.00;;;;;;;;;;4848797;29;20132;-87
2021/01/20 00:59:22;;;;;;;4.55;2.22;;;;;;;;;;4851480;29;20404;-91
2021/01/20 01:01:48;;;;;;;3.13;2.00;;;;;;;;;;4851959;29;20056;-90
2021/01/20 01:04:14;;;;;;;4.28;2.95;;;;;;;;;;4854379;29;20440;-91
2021/01/20 01:06:41;;;;;;;4.43;2.50;;;;;;;;;;4852522;29;20046;-89
2021/01/20 01:09:07;;;;;;;3.55;2.13;;;;;;;;;;4852784;29;20053;-90
2021/01/20 01:11:33;;;;;;;3.65;2.17;;;;;;;;;;4848770;29;20113;-91
2021/01/20 01:13:59;;;;;;;3.22;2.15;;;;;;;;;;4846279;29;20049;-89
2021/01/20 01:16:26;;;;;;;3.58;2.25;;;;;;;;;;4847020;29;20057;-87
2021/01/20 01:18:52;;;;;;;3.22;2.10;;;;;;;;;;4848302;29;20393;-87
2021/01/20 01:21:18;;;;;;;3.45;2.30;;;;;;;;;;4845148;29;20054;-87
2021/01/20 01:23:44;;;;;;;4.05;2.10;;;;;;;;;;4845282;29;20132;-86
2021/01/20 01:26:10;;;;;;;5.43;2.30;;;;;;;;;;4852395;29;20488;-85
2021/01/20 01:28:36;;;;;;;8.13;2.20;;;;;;;;;;4851576;29;20128;-90
2021/01/20 01:31:02;;;;;;;4.05;2.75;;;;;;;;;;4854665;29;20117;-87
2021/01/20 01:33:31;;;;;;;4.55;2.30;;;;;;;;;;4851456;29;20049;-86
2021/01/20 01:35:58;;;;;;;5.30;2.20;;;;;;;;;;4849834;29;20056;-84
2021/01/20 01:38:24;;;;;;;2.75;2.22;;;;;;;;;;4850918;29;20041;-85
2021/01/20 01:40:50;;;;;;;3.50;1.83;;;;;;;;;;4854610;29;20062;-85
2021/01/20 01:43:16;;;;;;;2.80;1.90;;;;;;;;;;4852516;29;20423;-91
2021/01/20 01:45:42;;;;;;;3.53;2.13;;;;;;;;;;4849490;29;20049;-86
2021/01/20 01:48:08;;;;;;;2.63;1.75;;;;;;;;;;4848951;29;20062;-92
2021/01/20 01:50:35;;;;;;;2.80;1.85;;;;;;;;;;4847433;29;20081;-87
2021/01/20 01:53:01;;;;;;;3.83;2.08;;;;;;;;;;4845620;29;20136;-83
2021/01/20 01:55:30;;;;;;;4.32;2.20;;;;;;;;;;4846601;29;20050;-83
2021/01/20 01:57:57;;;;;;;3.47;2.15;;;;;;;;;;4847520;29;20052;-87
2021/01/20 02:00:28;;;;;;;3.53;2.13;;;;;;;;;;4847290;29;20108;-84
2021/01/20 02:02:57;;;;;;;2.92;1.75;;;;;;;;;;4853272;29;20136;-87
2021/01/20 02:05:23;;;;;;;3.38;2.30;;;;;;;;;;4850127;29;20057;-89
2021/01/20 02:07:50;;;;;;;3.88;2.42;;;;;;;;;;4854504;29;20059;-83
2021/01/20 02:10:16;;;;;;;3.47;1.88;;;;;;;;;;4850999;29;20448;-89
2021/01/20 02:13:01;;;;;;;4.53;2.33;;;;;;;;;;4860752;29;21002;-87
2021/01/20 02:15:41;;;;;;;3.40;1.65;;;;;;;;;;4855801;29;20060;-81
2021/01/20 02:18:09;;;;;;;4.93;2.28;;;;;;;;;;4858423;29;20060;-87
2021/01/20 02:20:44;;;;;;;2.80;1.90;;;;;;;;;;4850091;29;20530;-87
2021/01/20 02:23:16;;;;;;;3.83;1.98;;;;;;;;;;4856229;29;20059;-87
2021/01/20 02:26:01;;;;;;;4.95;2.00;;;;;;;;;;4860099;29;20060;-82
2021/01/20 02:28:34;;;;;;;3.00;2.03;;;;;;;;;;4851494;29;20059;-81
2021/01/20 02:31:01;;;;;;;5.40;1.90;;;;;;;;;;4853647;29;20049;-83
2021/01/20 02:33:28;;;;;;;2.33;1.80;;;;;;;;;;4851384;29;20058;-83
2021/01/20 02:35:59;;;;;;;3.13;1.77;;;;;;;;;;4856740;29;20096;-86
2021/01/20 02:38:26;;;;;;;2.95;1.70;;;;;;;;;;4855130;29;20054;-85
2021/01/20 02:40:52;;;;;;;2.40;2.00;;;;;;;;;;4856275;29;20060;-81
2021/01/20 02:43:27;;;;;;;2.38;1.60;;;;;;;;;;4857318;29;20137;-83
2021/01/20 02:45:53;;;;;;;3.08;1.83;;;;;;;;;;4852440;29;20049;-82
2021/01/20 02:48:20;;;;;;;3.42;1.80;;;;;;;;;;4855708;29;20058;-88
2021/01/20 02:50:46;;;;;;;4.07;2.17;;;;;;;;;;4854842;29;20049;-88
2021/01/20 02:53:14;;;;;;;3.75;1.88;;;;;;;;;;4850984;29;20050;-88
2021/01/20 02:55:45;;;;;;;2.92;1.73;;;;;;;;;;4852218;29;20085;-87
2021/01/20 02:58:17;;;;;;;2.35;1.60;;;;;;;;;;4853587;29;20053;-87
2021/01/20 03:00:44;;;;;;;2.42;1.42;;;;;;;;;;4854127;29;20057;-90
2021/01/20 03:03:20;;;;;;;3.20;1.90;;;;;;;;;;4851263;29;20058;-90
2021/01/20 03:05:48;;;;;;;3.85;1.60;;;;;;;;;;4853795;29;20061;-88
2021/01/20 03:08:15;;;;;;;1.90;1.23;;;;;;;;;;4861017;29;20049;-91
2021/01/20 03:10:41;;;;;;;3.95;1.83;;;;;;;;;;4853011;29;20058;-88
2021/01/20 03:13:07;;;;;;;3.42;1.63;;;;;;;;;;4858420;29;20137;-85
2021/01/20 03:15:39;;;;;;;2.75;1.45;;;;;;;;;;4851814;29;20045;-88
2021/01/20 03:18:06;;;;;;;2.47;1.50;;;;;;;;;;4852179;29;20053;-88
2021/01/20 03:20:33;;;;;;;2.97;1.83;;;;;;;;;;4847419;29;20053;-87
2021/01/20 03:22:59;;;;;;;1.80;1.42;;;;;;;;;;4851250;29;20144;-85
2021/01/20 03:25:25;;;;;;;2.45;1.30;;;;;;;;;;4846647;29;20050;-84
2021/01/20 03:27:51;;;;;;;2.60;1.65;;;;;;;;;;4872066;24;20053;-78
2021/01/20 03:30:18;;;;;;;3.35;1.80;;;;;;;;;;4870009;29;20053;-78
2021/01/20 03:32:44;;;;;;;2.95;1.50;;;;;;;;;;4865771;29;20048;-78
2021/01/20 03:35:11;;;;;;;2.88;1.38;;;;;;;;;;4864351;29;20073;-77
2021/01/20 03:37:37;;;;;;;2.20;1.40;;;;;;;;;;4864437;29;20140;-78
2021/01/20 03:40:05;;;;;;;2.05;1.15;;;;;;;;;;4875224;29;20507;-75
2021/01/20 03:42:31;;;;;;;2.15;1.45;;;;;;;;;;4864586;29;20050;-77
2021/01/20 03:44:57;;;;;;;2.42;1.27;;;;;;;;;;4866954;29;20144;-77
2021/01/20 03:47:23;;;;;;;2.60;1.60;;;;;;;;;;4874905;29;20105;-79
2021/01/20 03:49:50;;;;;;;2.05;1.45;;;;;;;;;;4856225;29;20056;-80
2021/01/20 03:52:16;;;;;;;2.50;1.67;;;;;;;;;;4864869;29;20057;-79
2021/01/20 03:54:42;;;;;;;1.80;1.20;;;;;;;;;;4866310;29;20046;-78
2021/01/20 03:57:09;;;;;;;1.80;1.30;;;;;;;;;;4863934;29;20136;-78
2021/01/20 03:59:35;;;;;;;2.42;1.83;;;;;;;;;;4864661;29;20152;-78
2021/01/20 04:02:05;;;;;;;2.00;1.25;;;;;;;;;;4859676;29;20049;-78
2021/01/20 04:04:32;;;;;;;1.95;1.30;;;;;;;;;;4865822;29;20164;-78
2021/01/20 04:07:00;;;;;;;2.53;1.40;;;;;;;;;;4868855;29;20415;-77
2021/01/20 04:09:27;;;;;;;2.47;1.20;;;;;;;;;;4868562;29;20049;-78
2021/01/20 04:11:53;;;;;;;1.80;1.13;;;;;;;;;;4867541;29;20214;-77
2021/01/20 04:14:19;;;;;;;2.28;1.77;;;;;;;;;;4861343;29;20518;-78
2021/01/20 04:16:46;;;;;;;2.15;1.30;;;;;;;;;;4863337;29;20048;-78
2021/01/20 04:19:12;;;;;;;3.05;1.42;;;;;;;;;;4866491;29;20144;-79
2021/01/20 04:21:38;;;;;;;2.22;1.50;;;;;;;;;;4864080;29;20049;-80
2021/01/20 04:24:04;;;;;;;2.25;1.20;;;;;;;;;;4874832;29;20424;-79
2021/01/20 04:26:30;;;;;;;2.20;1.40;;;;;;;;;;4862165;29;20077;-80
2021/01/20 04:28:56;;;;;;;2.95;1.30;;;;;;;;;;4862652;29;20045;-79
2021/01/20 04:31:23;;;;;;;1.58;1.17;;;;;;;;;;4867827;29;20053;-79
2021/01/20 04:33:49;;;;;;;2.42;1.45;;;;;;;;;;4864417;29;20064;-79
2021/01/20 04:36:15;;;;;;;1.77;1.30;;;;;;;;;;4862926;29;20088;-79
2021/01/20 04:38:41;;;;;;;2.65;1.20;;;;;;;;;;4867704;29;20052;-79
2021/01/20 04:41:07;;;;;;;1.42;1.20;;;;;;;;;;4862775;29;20518;-78
2021/01/20 04:43:34;;;;;;;1.92;1.20;;;;;;;;;;4862722;29;20057;-79
2021/01/20 04:46:00;;;;;;;1.45;0.90;;;;;;;;;;4861212;29;20401;-80
2021/01/20 04:48:35;;;;;;;2.28;1.17;;;;;;;;;;4862204;29;20041;-76
2021/01/20 04:51:03;;;;;;;1.40;0.90;;;;;;;;;;4867147;29;20053;-76
2021/01/20 04:53:30;;;;;;;2.05;1.20;;;;;;;;;;4864029;29;20061;-77
2021/01/20 04:55:59;;;;;;;2.40;1.40;;;;;;;;;;4864461;29;20136;-78
2021/01/20 04:58:25;;;;;;;2.65;1.23;;;;;;;;;;4863390;29;20458;-75
2021/01/20 05:00:51;;;;;;;2.38;1.35;;;;;;;;;;4864019;29;20432;-79
2021/01/20 05:03:17;;;;;;;2.75;1.50;;;;;;;;;;4867595;29;20049;-78
2021/01/20 05:05:45;;;;;;;1.73;1.00;;;;;;;;;;4867756;29;20055;-78
2021/01/20 05:08:11;;;;;;;2.95;1.20;;;;;;;;;;4867380;29;20646;-77
2021/01/20 05:10:37;;;;;;;1.55;1.15;;;;;;;;;;4862417;29;20141;-79
2021/01/20 05:13:03;;;;;;;2.30;1.17;;;;;;;;;;4867780;29;20067;-79
2021/01/20 05:15:31;;;;;;;2.50;1.23;;;;;;;;;;4869107;29;20092;-80
2021/01/20 05:17:58;;;;;;;2.45;1.45;;;;;;;;;;4860957;29;20049;-80
2021/01/20 05:20:26;;;;;;;2.22;1.20;;;;;;;;;;4870176;29;20056;-81
2021/01/20 05:22:55;;;;;;;1.48;1.08;;;;;;;;;;4864098;29;20132;-81
2021/01/20 05:25:23;;;;;;;;;;;;;;;;;;4865725;29;20528;-79
2021/01/20 05:27:49;;;;;;;2.70;1.50;;;;;;;;;;4868813;29;19932;-80
2021/01/20 05:30:15;;;;;;;1.92;1.13;;;;;;;;;;4866286;29;20060;-81
2021/01/20 05:32:42;;;;;;;1.45;0.90;;;;;;;;;;4864593;29;20045;-80
2021/01/20 05:35:09;;;;;;;2.22;1.23;;;;;;;;;;4860438;29;20053;-80
2021/01/20 05:37:45;;;;;;;8.25;1.33;;;;;;;;;;4868935;29;20076;-80
2021/01/20 05:40:13;;;;;;;2.88;1.35;;;;;;;;;;4861683;29;20138;-80
2021/01/20 05:42:46;;;;;;;1.45;0.95;;;;;;;;;;4862935;29;20050;-79
2021/01/20 05:45:12;;;;;;;2.65;1.00;;;;;;;;;;4859138;29;20364;-80
2021/01/20 05:47:38;;;;;;;3.10;1.52;;;;;;;;;;4869129;29;20048;-78
2021/01/20 05:50:06;;;;;;;2.50;1.15;;;;;;;;;;4861897;29;20065;-79
2021/01/20 05:52:32;;;;;;;2.50;1.40;;;;;;;;;;4865758;29;20045;-81
2021/01/20 05:54:58;;;;;;;2.05;1.30;;;;;;;;;;4861367;29;20053;-79
2021/01/20 05:57:28;;;;;;;2.72;1.08;;;;;;;;;;4863500;29;20419;-79
2021/01/20 05:59:54;;;;;;;1.92;1.30;;;;;;;;;;4859859;29;20063;-80
2021/01/20 06:02:21;;;;;;;2.03;1.10;;;;;;;;;;4866070;29;20411;-79
2021/01/20 06:04:48;;;;;;;2.15;1.45;;;;;;;;;;4868589;29;20527;-79
2021/01/20 06:07:14;;;;;;;2.15;1.15;;;;;;;;;;4861170;29;20101;-79
2021/01/20 06:09:42;;;;;;;2.15;1.02;;;;;;;;;;4871044;29;20514;-77
2021/01/20 06:12:09;;;;;;;1.67;1.23;;;;;;;;;;4860773;29;20053;-77
2021/01/20 06:14:35;;;;;;;1.95;1.05;;;;;;;;;;4864646;29;20060;-79
2021/01/20 06:17:14;;;;;;;1.20;0.93;;;;;;;;;;4861875;29;20168;-81
2021/01/20 06:19:47;;;;;;;2.80;1.20;;;;;;;;;;4863553;29;20480;-80
2021/01/20 06:22:17;;;;;;;3.08;1.13;;;;;;;;;;4867106;29;20144;-80
2021/01/20 06:24:43;;;;;;;;;;;;;;;;;;4862188;29;20060;-79
2021/01/20 06:27:19;;;;;;;2.72;1.38;;;;;;;;;;4862599;29;19924;-76
2021/01/20 06:29:48;;;;;;;2.13;1.10;;;;;;;;;;4859768;29;20057;-77
2021/01/20 06:32:20;;;;;;;1.48;0.82;;;;;;;;;;4863469;29;20052;-78
2021/01/20 06:34:56;;;;;;;2.20;1.17;;;;;;;;;;4862888;29;20065;-78
2021/01/20 06:37:55;;;;;;;1.92;1.10;;;;;;;;;;4861572;29;20083;-80
2021/01/20 06:40:21;;;;;;;3.08;1.60;;;;;;;;;;4841693;29;20064;-81
2021/01/20 06:42:48;;;;;;;2.90;1.50;;;;;;;;;;4863625;29;20084;-76
2021/01/20 06:45:15;;;;;;;2.55;0.88;;;;;;;;;;4865939;29;20053;-77
2021/01/20 06:47:59;;;;;;;3.70;1.52;;;;;;;;;;4865488;29;20128;-84
2021/01/20 06:50:26;;;;;;;3.50;1.00;;;;;;;;;;4864539;29;20055;-84
2021/01/20 06:53:03;;;;;;;6.50;1.52;;;;;;;;;;4867249;29;20506;-84
2021/01/20 06:55:35;;;;;;;2.60;1.25;;;;;;;;;;4867391;29;20049;-89
2021/01/20 06:58:20;;;;;;;4.30;1.35;;;;;;;;;;4866860;29;20053;-90
2021/01/20 07:00:58;;;;;;;2.25;1.13;;;;;;;;;;4866773;29;20072;-88
2021/01/20 07:03:41;;;;;;;2.55;1.35;;;;;;;;;;4866612;29;20500;-86
2021/01/20 07:06:29;;;;;;;3.78;1.48;;;;;;;;;;4864949;29;20111;-85
2021/01/20 07:08:56;;;;;;;3.97;1.20;;;;;;;;;;4866383;29;20199;-85
2021/01/20 07:11:22;;;;;;;4.88;1.08;;;;;;;;;;4872589;29;20488;-88
2021/01/20 07:13:48;;;;;;;3.97;1.27;;;;;;;;;;4872407;29;20056;-80
2021/01/20 07:16:16;;;;;;;4.10;1.63;;;;;;;;;;4865622;29;20059;-81
2021/01/20 07:18:44;;;;;;;6.72;1.13;;;;;;;;;;4867056;29;20064;-81
2021/01/20 07:21:10;;;;;;;3.00;1.17;;;;;;;;;;4863832;29;20041;-82
2021/01/20 07:23:38;;;;;;;6.35;1.27;;;;;;;;;;4865747;29;20066;-82
2021/01/20 07:26:05;;;;;;;17.58;1.30;;;;;;;;;;4864616;29;20054;-82
2021/01/20 07:28:32;;;;;;;5.57;1.42;;;;;;;;;;4868059;29;20279;-81
2021/01/20 07:31:05;;;;;;;2.38;1.15;;;;;;;;;;4865813;29;20067;-79
2021/01/20 07:33:31;;;;;;;3.33;1.20;;;;;;;;;;4865508;29;20050;-83
2021/01/20 07:36:07;;;;;;;4.18;1.17;;;;;;;;;;4865707;29;20053;-81
2021/01/20 07:38:33;;;;;;;5.05;2.58;;;;;;;;;;4867616;29;20140;-81
2021/01/20 07:41:11;;;;;;;8.02;2.75;;;;;;;;;;4862898;29;20188;-81
2021/01/20 07:43:37;;;;;;;6.90;2.63;;;;;;;;;;4858046;29;20057;-80
2021/01/20 07:46:12;;;;;;;9.75;2.20;;;;;;;;;;4861039;29;20053;-82
2021/01/20 07:48:38;;;;;;;7.57;2.42;;;;;;;;;;4864588;29;20078;-82
2021/01/20 07:51:04;;;;;;;7.32;2.50;;;;;;;;;;4865306;29;20283;-81
2021/01/20 07:53:30;;;;;;;3.88;2.05;;;;;;;;;;4861893;29;20053;-82
2021/01/20 07:55:56;;;;;;;5.32;2.22;;;;;;;;;;4865956;29;20056;-81
2021/01/20 07:58:26;;;;;;;6.05;2.50;;;;;;;;;;4865611;29;20055;-81
2021/01/20 08:00:52;;;;;;;5.88;2.70;;;;;;;;;;4863847;29;20441;-78
2021/01/20 08:03:34;;;;;;;7.45;2.28;;;;;;;;;;4864892;29;20050;-82
2021/01/20 08:06:10;;;;;;;12.90;2.53;;;;;;;;;;4867470;29;20049;-82
2021/01/20 08:08:51;;;;;;;5.10;2.25;;;;;;;;;;4865515;29;20393;-83
2021/01/20 08:11:18;;;;;;;4.20;1.95;;;;;;;;;;4867470;29;20049;-78
2021/01/20 08:13:45;;;;;;;5.25;2.30;;;;;;;;;;4873332;29;20555;-78
2021/01/20 08:16:13;;;;;;;10.13;4.47;;;;;;;;;;4865197;29;20175;-77
2021/01/20 08:18:39;;;;;;;9.73;5.53;;;;;;;;;;4868593;29;20059;-78
2021/01/20 08:21:06;;;;;;;12.50;5.72;;;;;;;;;;4865382;29;20067;-79
2021/01/20 08:23:44;;;;;;;13.68;6.70;;;;;;;;;;4863453;29;20072;-77
2021/01/20 08:26:10;;;;;;;12.25;5.93;;;;;;;;;;4862396;29;22243;-79
2021/01/20 08:28:36;;;;;;;12.95;6.50;;;;;;;;;;4866068;29;20061;-78
2021/01/20 08:31:18;;;;;;;15.40;7.47;;;;;;;;;;4860714;29;20656;-79
2021/01/20 08:33:44;;;;;;;16.73;7.35;;;;;;;;;;4862968;29;20064;-81
2021/01/20 08:36:12;;;;;;;13.02;6.85;;;;;;;;;;4865373;29;20049;-75
2021/01/20 08:38:39;;;;;;;13.80;7.93;;;;;;;;;;4863449;29;20056;-75
2021/01/20 08:41:09;;;;;;;20.63;8.98;;;;;;;;;;4865900;29;20049;-76
2021/01/20 08:43:35;;;;;;;16.50;8.63;;;;;;;;;;4866343;29;20056;-76
2021/01/20 08:46:20;;;;;;;18.40;9.27;;;;;;;;;;4866490;29;20521;-75
2021/01/20 08:48:52;;;;;;;19.00;7.93;;;;;;;;;;4864735;29;20049;-75
2021/01/20 08:51:19;;;;;;;20.63;8.63;;;;;;;;;;4868874;29;20048;-75
2021/01/20 08:53:45;;;;;;;22.33;9.20;;;;;;;;;;4867618;29;20415;-75
2021/01/20 08:56:11;;;;;;;20.08;9.60;;;;;;;;;;4865813;29;20056;-75
2021/01/20 08:58:37;;;;;;;16.50;8.65;;;;;;;;;;4867954;29;20684;-75
2021/01/20 09:01:06;;;;;;;16.00;8.85;;;;;;;;;;4868053;29;20420;-76
2021/01/20 09:03:34;;;;;;;20.17;8.60;;;;;;;;;;4865770;29;20056;-74
2021/01/20 09:06:06;;;;;;;22.77;8.30;;;;;;;;;;4867829;29;20064;-75
2021/01/20 09:08:36;;;;;;;19.15;8.50;;;;;;;;;;4863585;29;20049;-75
2021/01/20 09:11:07;;;;;;;17.33;7.50;;;;;;;;;;4867708;29;20431;-75
2021/01/20 09:13:44;;;;;;;17.65;8.30;;;;;;;;;;4866535;29;20132;-75
2021/01/20 09:16:11;;;;;;;21.30;7.93;;;;;;;;;;4866944;29;20089;-75
2021/01/20 09:18:41;;;;;;;17.35;7.28;;;;;;;;;;4860971;29;20524;-76
2021/01/20 09:21:07;;;;;;;15.95;8.05;;;;;;;;;;4857150;29;20048;-76
2021/01/20 09:23:33;;;;;;;15.73;6.82;;;;;;;;;;4858298;29;20046;-76
2021/01/20 09:26:00;;;;;;;18.13;6.93;;;;;;;;;;4862627;29;20492;-76
2021/01/20 09:28:28;;;;;;;16.05;7.30;;;;;;;;;;4864267;29;20144;-76
2021/01/20 09:30:54;;;;;;;15.40;6.43;;;;;;;;;;4864168;29;20068;-76
2021/01/20 09:33:21;;;;;;;15.68;6.13;;;;;;;;;;4861576;29;20051;-76
2021/01/20 09:35:51;;;;;;;13.73;6.68;;;;;;;;;;4859436;29;20045;-76
2021/01/20 09:38:21;;;;;;;16.02;6.18;;;;;;;;;;4859007;29;20063;-76
2021/01/20 09:40:47;;;;;;;12.65;5.32;;;;;;;;;;4863116;29;20445;-76
2021/01/20 09:43:13;;;;;;;13.85;5.95;;;;;;;;;;4861128;29;20056;-76
2021/01/20 09:45:39;;;;;;;15.02;5.75;;;;;;;;;;4862908;29;20053;-76
2021/01/20 09:48:08;;;;;;;15.38;5.38;;;;;;;;;;4865435;29;20131;-76
2021/01/20 09:50:35;;;;;;;12.15;4.72;;;;;;;;;;4866795;29;20535;-76
2021/01/20 09:53:01;;;;;;;14.43;5.10;;;;;;;;;;4864191;29;20063;-76
2021/01/20 09:55:28;;;;;;;13.82;5.03;;;;;;;;;;4863711;29;20060;-76
2021/01/20 09:57:54;;;;;;;12.52;5.68;;;;;;;;;;4864280;29;20060;-76
2021/01/20 10:00:20;;;;;;;13.98;5.75;;;;;;;;;;4865704;29;20045;-76
2021/01/20 10:02:46;;;;;;;12.38;5.93;;;;;;;;;;4865604;29;20053;-75
2021/01/20 10:05:13;;;;;;;9.95;4.47;;;;;;;;;;4861908;29;20080;-76
2021/01/20 10:07:40;;;;;;;9.75;4.95;;;;;;;;;;4866902;29;20579;-76
2021/01/20 10:10:10;;;;;;;9.23;4.65;;;;;;;;;;4870197;29;20049;-76
2021/01/20 10:12:37;;;;;;;8.95;4.43;;;;;;;;;;4867060;29;21980;-76
2021/01/20 10:15:04;;;;;;;8.88;3.70;;;;;;;;;;4864233;29;20144;-76
2021/01/20 10:17:30;;;;;;;9.15;4.00;;;;;;;;;;4862794;29;20075;-76
2021/01/20 10:19:57;;;;;;;7.00;3.47;;;;;;;;;;4860948;29;20148;-76
2021/01/20 10:22:24;;;;;;;8.90;3.42;;;;;;;;;;4863185;29;20141;-76
2021/01/20 10:24:50;;;;;;;8.85;4.18;;;;;;;;;;4859785;29;20054;-76
2021/01/20 10:27:17;;;;;;;7.70;3.58;;;;;;;;;;4866406;29;20056;-75
2021/01/20 10:29:43;;;;;;;7.05;3.70;;;;;;;;;;4866235;29;20055;-76
2021/01/20 10:32:09;;;;;;;10.57;4.10;;;;;;;;;;4864102;29;20405;-76
2021/01/20 10:34:36;;;;;;;8.70;3.55;;;;;;;;;;4866239;29;20141;-76
2021/01/20 10:37:03;;;;;;;8.00;3.85;;;;;;;;;;4868767;29;20051;-75
2021/01/20 10:39:29;;;;;;;9.68;3.38;;;;;;;;;;4866310;29;20084;-75
2021/01/20 10:41:55;;;;;;;7.30;3.50;;;;;;;;;;4867849;29;20543;-75
2021/01/20 10:44:21;;;;;;;9.35;3.30;;;;;;;;;;4870823;29;20418;-75
2021/01/20 10:46:48;;;;;;;9.05;3.45;;;;;;;;;;4867069;29;20049;-76
2021/01/20 10:49:14;;;;;;;7.50;3.17;;;;;;;;;;4866005;29;20113;-76
2021/01/20 10:51:40;;;;;;;7.97;3.22;;;;;;;;;;4864530;29;20052;-75
2021/01/20 10:54:07;;;;;;;7.30;3.10;;;;;;;;;;4868262;29;20057;-75
2021/01/20 10:56:33;;;;;;;10.05;3.42;;;;;;;;;;4871022;29;20149;-76
2021/01/20 10:58:59;;;;;;;7.47;3.28;;;;;;;;;;4864418;29;20069;-76
2021/01/20 11:01:25;;;;;;;6.97;3.83;;;;;;;;;;4863693;29;20060;-76
2021/01/20 11:03:52;;;;;;;10.05;3.78;;;;;;;;;;4863250;29;20478;-76
2021/01/20 11:06:18;;;;;;;9.70;3.03;;;;;;;;;;4867856;29;20128;-76
2021/01/20 11:08:44;;;;;;;6.88;2.92;;;;;;;;;;4863243;29;20514;-75
2021/01/20 11:11:11;;;;;;;6.20;2.85;;;;;;;;;;4866262;29;20056;-75
2021/01/20 11:13:39;;;;;;;8.13;2.88;;;;;;;;;;4866241;29;20073;-75
2021/01/20 11:16:05;;;;;;;8.13;2.80;;;;;;;;;;4863933;29;20137;-75
2021/01/20 11:18:35;;;;;;;6.80;2.33;;;;;;;;;;4871285;29;20053;-75
2021/01/20 11:21:03;;;;;;;6.47;2.65;;;;;;;;;;4865589;29;20049;-75
2021/01/20 11:23:38;;;;;;;6.15;2.97;;;;;;;;;;4867037;29;20061;-75
2021/01/20 11:26:08;;;;;;;6.22;2.45;;;;;;;;;;4865582;29;20139;-76
2021/01/20 11:28:37;;;;;;;8.48;3.22;;;;;;;;;;4862363;29;20061;-76
2021/01/20 11:31:03;;;;;;;6.75;3.00;;;;;;;;;;4863823;29;20077;-76
2021/01/20 11:33:36;;;;;;;6.15;2.13;;;;;;;;;;4864486;29;20049;-76
2021/01/20 11:36:02;;;;;;;6.53;3.13;;;;;;;;;;4861542;29;20073;-76
2021/01/20 11:38:29;;;;;;;5.50;2.10;;;;;;;;;;4866049;29;20045;-76
2021/01/20 11:40:55;;;;;;;7.95;2.83;;;;;;;;;;4868254;29;20053;-76
2021/01/20 11:43:21;;;;;;;6.53;2.95;;;;;;;;;;4866833;29;20083;-76
2021/01/20 11:45:47;;;;;;;8.15;3.38;;;;;;;;;;4867388;29;20057;-76
2021/01/20 11:48:14;;;;;;;7.03;2.55;;;;;;;;;;4863958;29;20056;-76
2021/01/20 11:50:40;;;;;;;5.30;2.20;;;;;;;;;;4865287;29;20598;-78
2021/01/20 11:53:07;;;;;;;9.55;3.08;;;;;;;;;;4863538;29;20053;-76
2021/01/20 11:55:33;;;;;;;5.97;3.28;;;;;;;;;;4865217;29;20063;-76
2021/01/20 11:57:59;;;;;;;6.03;2.50;;;;;;;;;;4861467;29;20049;-77
2021/01/20 12:00:25;;;;;;;7.90;2.10;;;;;;;;;;4865399;29;20053;-77
2021/01/20 12:02:51;;;;;;;6.55;2.38;;;;;;;;;;4869733;29;20178;-76
2021/01/20 12:05:18;;;;;;;7.47;2.88;;;;;;;;;;4864656;29;20061;-77
2021/01/20 12:07:44;;;;;;;5.40;2.33;;;;;;;;;;4864993;29;20057;-77
2021/01/20 12:10:12;;;;;;;5.20;2.55;;;;;;;;;;4866446;29;20045;-77
2021/01/20 12:12:38;;;;;;;6.68;2.85;;;;;;;;;;4863087;29;20483;-76
2021/01/20 12:15:04;;;;;;;5.38;2.63;;;;;;;;;;4863974;29;20145;-77
2021/01/20 12:17:31;;;;;;;10.32;3.03;;;;;;;;;;4864508;29;20156;-77
2021/01/20 12:19:57;;;;;;;8.88;3.13;;;;;;;;;;4867941;29;20077;-76
2021/01/20 12:22:23;;;;;;;8.90;3.92;;;;;;;;;;4866255;29;20773;-77
2021/01/20 12:24:52;;;;;;;8.43;5.30;;;;;;;;;;4861930;29;20056;-76
2021/01/20 12:27:18;;;;;;;11.27;6.68;;;;;;;;;;4860273;29;20073;-76
2021/01/20 12:29:45;;;;;;;9.82;6.28;;;;;;;;;;4864293;29;20052;-76
2021/01/20 12:32:11;;;;;;;11.80;6.65;;;;;;;;;;4867976;29;20161;-77
2021/01/20 12:34:37;;;;;;;11.05;6.88;;;;;;;;;;4864399;29;20189;-77
2021/01/20 12:37:03;;;;;;;16.00;7.22;;;;;;;;;;4862374;29;20412;-77
2021/01/20 12:39:30;;;;;;;10.90;7.15;;;;;;;;;;4865441;29;20048;-77
2021/01/20 12:41:56;;;;;;;13.73;8.50;;;;;;;;;;4860442;29;20064;-77
2021/01/20 12:44:22;;;;;;;10.45;9.38;;;;;;;;;;4864026;29;20050;-77
2021/01/20 12:46:48;;;;;;;12.18;10.80;;;;;;;;;;4867346;29;20072;-76
2021/01/20 12:49:15;;;;;;;12.93;11.52;;;;;;;;;;4862728;29;20045;-77
2021/01/20 12:51:41;;;;;;;13.48;12.05;;;;;;;;;;4865245;29;20531;-78
2021/01/20 12:54:08;;;;;;;12.95;11.40;;;;;;;;;;4863534;29;20476;-77
2021/01/20 12:56:34;;;;;;;12.82;11.52;;;;;;;;;;4864968;29;20484;-77
2021/01/20 12:59:01;;;;;;;14.00;12.18;;;;;;;;;;4861780;29;20058;-77
2021/01/20 13:01:27;;;;;;;13.82;12.18;;;;;;;;;;4867461;29;20057;-77
2021/01/20 13:03:53;;;;;;;17.38;14.05;;;;;;;;;;4868619;29;20063;-78
2021/01/20 13:06:19;;;;;;;14.80;12.65;;;;;;;;;;4863721;29;20137;-77
2021/01/20 13:08:48;;;;;;;17.60;15.13;;;;;;;;;;4863653;29;20396;-77
2021/01/20 13:11:15;;;;;;;19.67;13.73;;;;;;;;;;4866666;29;20418;-78
2021/01/20 13:13:46;;;;;;;21.25;13.82;;;;;;;;;;4860814;29;20087;-77
2021/01/20 13:16:18;;;;;;;17.38;14.15;;;;;;;;;;4858283;29;20408;-77
2021/01/20 13:18:46;;;;;;;21.48;14.13;;;;;;;;;;4864624;29;20061;-77
2021/01/20 13:21:13;;;;;;;20.92;13.43;;;;;;;;;;4867264;29;20047;-76
2021/01/20 13:23:43;;;;;;;19.88;13.35;;;;;;;;;;4867891;29;20056;-77
2021/01/20 13:26:09;;;;;;;17.98;13.00;;;;;;;;;;4865654;29;20056;-78
2021/01/20 13:28:35;;;;;;;18.80;13.73;;;;;;;;;;4863644;29;20097;-77
2021/01/20 13:31:01;;;;;;;16.90;11.45;;;;;;;;;;4866294;29;20053;-76
2021/01/20 13:33:29;;;;;;;17.25;11.68;;;;;;;;;;4864374;29;20113;-78
2021/01/20 13:35:55;;;;;;;17.55;11.05;;;;;;;;;;4863640;29;20497;-77
2021/01/20 13:38:21;;;;;;;17.33;10.88;;;;;;;;;;4862370;29;20064;-77
2021/01/20 13:40:47;;;;;;;15.05;10.38;;;;;;;;;;4861584;29;20145;-77
2021/01/20 13:43:14;;;;;;;16.58;10.70;;;;;;;;;;4865365;29;20052;-77
2021/01/20 13:45:40;;;;;;;15.93;10.00;;;;;;;;;;4866304;29;20395;-77
2021/01/20 13:48:06;;;;;;;17.55;9.85;;;;;;;;;;4865515;29;20049;-74
2021/01/20 13:50:32;;;;;;;17.88;9.27;;;;;;;;;;4863935;29;20434;-77
2021/01/20 13:53:03;;;;;;;15.50;9.65;;;;;;;;;;4861464;29;20045;-76
2021/01/20 13:55:29;;;;;;;13.73;8.68;;;;;;;;;;4864804;29;20057;-76
2021/01/20 13:57:55;;;;;;;13.98;9.32;;;;;;;;;;4870853;29;20069;-76
2021/01/20 14:00:21;;;;;;;12.75;9.20;;;;;;;;;;4870702;29;20053;-77
2021/01/20 14:02:47;;;;;;;11.45;8.50;;;;;;;;;;4866412;29;20057;-75
2021/01/20 14:05:14;;;;;;;14.50;8.73;;;;;;;;;;4865087;29;20140;-75
2021/01/20 14:07:40;;;;;;;14.20;9.07;;;;;;;;;;4864724;29;20443;-76
2021/01/20 14:10:06;;;;;;;12.02;8.40;;;;;;;;;;4863883;29;20052;-77
2021/01/20 14:12:32;;;;;;;12.93;8.02;;;;;;;;;;4862995;29;20060;-76
2021/01/20 14:14:59;;;;;;;11.13;7.30;;;;;;;;;;4866749;29;20416;-77
2021/01/20 14:17:25;;;;;;;11.82;7.65;;;;;;;;;;4864690;29;20061;-77
2021/01/20 14:19:51;;;;;;;12.80;8.13;;;;;;;;;;4868247;29;20117;-80
2021/01/20 14:22:18;;;;;;;13.98;7.32;;;;;;;;;;4862347;29;20049;-81
2021/01/20 14:24:44;;;;;;;9.82;6.72;;;;;;;;;;4868961;29;20053;-82
2021/01/20 14:27:10;;;;;;;10.25;7.20;;;;;;;;;;4861965;29;20057;-81
2021/01/20 14:29:37;;;;;;;12.95;6.88;;;;;;;;;;4863376;29;20453;-82
2021/01/20 14:32:03;;;;;;;9.68;5.97;;;;;;;;;;4861078;29;20064;-81
2021/01/20 14:34:30;;;;;;;13.57;6.97;;;;;;;;;;4867596;29;20045;-81
2021/01/20 14:36:58;;;;;;;11.07;6.75;;;;;;;;;;4866916;29;20136;-80
2021/01/20 14:39:26;;;;;;;11.90;6.20;;;;;;;;;;4869513;29;20057;-80
2021/01/20 14:41:52;;;;;;;12.90;7.10;;;;;;;;;;4867849;29;20053;-80